Time,TemperatureF,DewpointF,PressureIn,WindDirection,WindDirectionDegrees,WindSpeedMPH,WindSpeedGustMPH,Humidity,HourlyPrecipIn,Conditions,Clouds,dailyrainin,SolarRadiationWatts/m^2,SoftwareType,DateUTC
2013-01-03 00:00:00,51.6,50.0,30.11,NNW,335,1.0,1.0,94,0.00,,,0.01,0.0,meteohub,2013-01-03 05:00:00,
2013-01-03 00:04:00,51.6,50.0,30.10,NNE,27,0.0,2.0,94,0.00,,,0.01,0.0,meteohub,2013-01-03 05:04:00,
2013-01-03 00:09:00,51.4,49.8,30.09,NNE,27,0.0,2.0,94,0.00,,,0.00,0.0,meteohub,2013-01-03 05:09:00,
2013-01-03 00:14:00,51.4,49.8,30.09,NW,304,0.0,2.0,94,0.00,,,0.00,0.0,meteohub,2013-01-03 05:14:00,
2013-01-03 00:19:00,51.4,49.8,30.10,NW,306,0.0,3.0,94,0.00,,,0.00,0.0,meteohub,2013-01-03 05:19:00,
2013-01-03 00:24:00,51.6,50.0,30.09,NE,49,2.0,3.0,94,0.00,,,0.00,0.0,meteohub,2013-01-03 05:24:00,
2013-01-03 00:29:00,51.4,49.8,30.09,NE,49,0.0,3.0,94,0.00,,,0.00,0.0,meteohub,2013-01-03 05:29:00,
2013-01-03 00:34:00,51.4,49.8,30.08,NW,306,0.0,3.0,94,0.00,,,0.00,0.0,meteohub,2013-01-03 05:34:00,
2013-01-03 00:39:00,51.4,49.8,30.08,NNE,30,2.0,3.0,94,0.00,,,0.00,0.0,meteohub,2013-01-03 05:39:00,
2013-01-03 00:44:00,51.4,49.5,30.09,NE,50,0.0,4.0,93,0.00,,,0.00,0.0,meteohub,2013-01-03 05:44:00,
2013-01-03 00:49:00,51.4,49.5,30.09,NE,50,0.0,4.0,93,0.00,,,0.00,0.0,meteohub,2013-01-03 05:49:00,
2013-01-03 00:54:00,51.4,49.5,30.09,NNE,19,0.0,4.0,93,0.00,,,0.00,0.0,meteohub,2013-01-03 05:54:00,
2013-01-03 00:59:00,51.4,49.5,30.08,NE,44,0.0,2.0,93,0.00,,,0.00,0.0,meteohub,2013-01-03 05:59:00,
2013-01-03 01:04:00,51.4,49.5,30.08,East,82,0.0,2.0,93,0.00,,,0.00,0.0,meteohub,2013-01-03 06:04:00,
2013-01-03 01:09:00,51.4,49.5,30.07,ENE,78,0.0,3.0,93,0.00,,,0.00,0.0,meteohub,2013-01-03 06:09:00,
2013-01-03 01:14:00,51.3,49.3,30.07,NE,45,1.0,3.0,93,0.00,,,0.00,0.0,meteohub,2013-01-03 06:14:00,
2013-01-03 01:19:00,51.3,49.3,30.07,ENE,62,2.0,3.0,93,0.00,,,0.00,0.0,meteohub,2013-01-03 06:19:00,
2013-01-03 01:24:00,51.3,49.3,30.07,ENE,62,0.0,4.0,93,0.00,,,0.00,0.0,meteohub,2013-01-03 06:24:00,
2013-01-03 01:29:00,51.3,49.3,30.07,East,94,2.0,4.0,93,0.00,,,0.00,0.0,meteohub,2013-01-03 06:29:00,
2013-01-03 01:34:00,51.3,49.3,30.07,East,100,2.0,4.0,93,0.00,,,0.00,0.0,meteohub,2013-01-03 06:34:00,
2013-01-03 01:39:00,51.3,49.3,30.07,SE,138,0.0,3.0,93,0.00,,,0.00,0.0,meteohub,2013-01-03 06:39:00,
2013-01-03 01:44:00,51.3,49.3,30.07,South,173,1.0,3.0,93,0.00,,,0.00,0.0,meteohub,2013-01-03 06:44:00,
2013-01-03 01:49:00,51.1,49.1,30.06,SSE,154,0.0,3.0,93,0.00,,,0.00,0.0,meteohub,2013-01-03 06:49:00,
2013-01-03 01:54:00,51.1,49.1,30.07,East,91,0.0,3.0,93,0.00,,,0.00,0.0,meteohub,2013-01-03 06:54:00,
2013-01-03 01:59:00,51.1,49.1,30.07,ENE,74,0.0,5.0,93,0.00,,,0.00,0.0,meteohub,2013-01-03 06:59:00,
2013-01-03 02:04:00,51.1,49.1,30.08,ENE,61,0.0,5.0,93,0.00,,,0.00,0.0,meteohub,2013-01-03 07:04:00,
2013-01-03 02:09:00,51.1,49.1,30.09,NNE,15,1.0,5.0,93,0.00,,,0.00,0.0,meteohub,2013-01-03 07:09:00,
2013-01-03 02:14:00,50.9,48.9,30.08,East,82,1.0,2.0,93,0.00,,,0.00,0.0,meteohub,2013-01-03 07:14:00,
2013-01-03 02:19:00,50.7,48.7,30.08,NE,41,4.0,4.0,93,0.00,,,0.00,0.0,meteohub,2013-01-03 07:19:00,
2013-01-03 02:24:00,50.7,48.7,30.08,NE,38,0.0,3.0,93,0.00,,,0.00,0.0,meteohub,2013-01-03 07:24:00,
2013-01-03 02:29:00,50.5,48.6,30.08,NE,52,0.0,4.0,93,0.00,,,0.00,0.0,meteohub,2013-01-03 07:29:00,
2013-01-03 02:34:00,50.5,48.6,30.08,ESE,103,1.0,4.0,93,0.00,,,0.00,0.0,meteohub,2013-01-03 07:34:00,
2013-01-03 02:39:00,50.5,48.6,30.07,ENE,70,0.0,4.0,93,0.00,,,0.00,0.0,meteohub,2013-01-03 07:39:00,
2013-01-03 02:44:00,50.5,48.6,30.07,ENE,71,0.0,4.0,93,0.00,,,0.00,0.0,meteohub,2013-01-03 07:44:00,
2013-01-03 02:49:00,50.5,48.6,30.08,NE,39,1.0,3.0,93,0.00,,,0.00,0.0,meteohub,2013-01-03 07:49:00,
2013-01-03 02:54:00,50.5,48.6,30.08,NE,36,0.0,3.0,93,0.00,,,0.00,0.0,meteohub,2013-01-03 07:54:00,
2013-01-03 02:59:00,50.4,48.4,30.08,East,96,2.0,3.0,93,0.00,,,0.00,0.0,meteohub,2013-01-03 07:59:00,
2013-01-03 03:04:00,50.4,48.4,30.08,NE,39,0.0,3.0,93,0.00,,,0.00,0.0,meteohub,2013-01-03 08:04:00,
2013-01-03 03:09:00,50.4,48.4,30.09,ESE,123,0.0,4.0,93,0.00,,,0.00,0.0,meteohub,2013-01-03 08:09:00,
2013-01-03 03:14:00,50.4,48.4,30.09,NNE,12,1.0,4.0,93,0.00,,,0.00,0.0,meteohub,2013-01-03 08:14:00,
2013-01-03 03:19:00,50.4,48.4,30.09,NE,40,0.0,3.0,93,0.00,,,0.00,0.0,meteohub,2013-01-03 08:19:00,
2013-01-03 03:25:00,50.4,48.4,30.09,NNE,28,1.0,2.0,93,0.00,,,0.00,0.0,meteohub,2013-01-03 08:25:00,
2013-01-03 03:30:00,50.4,48.4,30.09,NNE,25,0.0,2.0,93,0.00,,,0.00,0.0,meteohub,2013-01-03 08:30:00,
2013-01-03 03:35:00,50.4,48.4,30.09,NNE,26,0.0,2.0,93,0.00,,,0.00,0.0,meteohub,2013-01-03 08:35:00,
2013-01-03 03:40:00,50.4,48.4,30.09,NNE,26,0.0,2.0,93,0.00,,,0.00,0.0,meteohub,2013-01-03 08:40:00,
2013-01-03 03:45:00,50.4,48.4,30.09,NNE,26,0.0,1.0,93,0.00,,,0.00,0.0,meteohub,2013-01-03 08:45:00,
2013-01-03 03:50:00,50.4,48.4,30.09,NNE,26,0.0,1.0,93,0.00,,,0.00,0.0,meteohub,2013-01-03 08:50:00,
2013-01-03 03:55:00,50.4,48.4,30.09,NNE,29,1.0,1.0,93,0.00,,,0.00,0.0,meteohub,2013-01-03 08:55:00,
2013-01-03 04:00:00,50.4,48.4,30.09,NNE,29,1.0,1.0,93,0.00,,,0.00,0.0,meteohub,2013-01-03 09:00:00,
2013-01-03 04:05:00,50.4,48.4,30.09,NNE,29,0.0,1.0,93,0.00,,,0.00,0.0,meteohub,2013-01-03 09:05:00,
2013-01-03 04:10:00,50.4,48.4,30.08,NNE,29,0.0,1.0,93,0.00,,,0.00,0.0,meteohub,2013-01-03 09:10:00,
2013-01-03 04:15:00,50.4,48.4,30.09,NNE,29,1.0,1.0,93,0.00,,,0.00,0.0,meteohub,2013-01-03 09:15:00,
2013-01-03 04:20:00,50.4,48.4,30.09,NNE,29,0.0,2.0,93,0.00,,,0.00,0.0,meteohub,2013-01-03 09:20:00,
2013-01-03 04:25:00,50.4,48.4,30.10,NNE,24,0.0,2.0,93,0.00,,,0.00,0.0,meteohub,2013-01-03 09:25:00,
2013-01-03 04:30:00,50.4,48.4,30.09,NE,36,1.0,2.0,93,0.00,,,0.00,0.0,meteohub,2013-01-03 09:30:00,
2013-01-03 04:35:00,50.2,48.2,30.09,NE,36,0.0,2.0,93,0.00,,,0.00,0.0,meteohub,2013-01-03 09:35:00,
2013-01-03 04:40:00,50.4,48.4,30.09,NE,46,0.0,2.0,93,0.00,,,0.00,0.0,meteohub,2013-01-03 09:40:00,
2013-01-03 04:45:00,50.2,48.2,30.10,NE,46,0.0,2.0,93,0.00,,,0.00,0.0,meteohub,2013-01-03 09:45:00,
2013-01-03 04:50:00,50.2,48.2,30.09,NNE,32,0.0,2.0,93,0.00,,,0.00,0.0,meteohub,2013-01-03 09:50:00,
2013-01-03 04:55:00,50.2,48.2,30.09,ENE,67,0.0,2.0,93,0.00,,,0.00,0.0,meteohub,2013-01-03 09:55:00,
2013-01-03 05:00:00,50.2,48.2,30.08,ENE,65,0.0,2.0,93,0.00,,,0.00,0.0,meteohub,2013-01-03 10:00:00,
2013-01-03 05:05:00,50.2,48.2,30.09,ENE,65,0.0,2.0,93,0.00,,,0.00,0.0,meteohub,2013-01-03 10:05:00,
2013-01-03 05:10:00,50.0,48.0,30.09,East,80,0.0,3.0,93,0.00,,,0.00,0.0,meteohub,2013-01-03 10:10:00,
2013-01-03 05:15:00,50.0,48.0,30.09,NE,38,1.0,3.0,93,0.00,,,0.00,0.0,meteohub,2013-01-03 10:15:00,
2013-01-03 05:20:00,49.8,47.8,30.09,ENE,61,0.0,3.0,93,0.00,,,0.00,0.0,meteohub,2013-01-03 10:20:00,
2013-01-03 05:25:00,49.8,47.8,30.10,ENE,61,0.0,3.0,93,0.00,,,0.00,0.0,meteohub,2013-01-03 10:25:00,
2013-01-03 05:30:00,49.8,47.8,30.10,ENE,76,0.0,2.0,93,0.00,,,0.00,0.0,meteohub,2013-01-03 10:30:00,
2013-01-03 05:35:00,49.8,47.8,30.10,ENE,76,0.0,2.0,93,0.00,,,0.00,0.0,meteohub,2013-01-03 10:35:00,
2013-01-03 05:40:00,49.8,47.8,30.11,ENE,61,0.0,2.0,93,0.00,,,0.00,0.0,meteohub,2013-01-03 10:40:00,
2013-01-03 05:45:00,49.8,47.8,30.10,NE,49,0.0,4.0,93,0.00,,,0.00,0.0,meteohub,2013-01-03 10:45:00,
2013-01-03 05:50:00,49.6,47.7,30.10,NE,36,0.0,4.0,93,0.00,,,0.00,0.0,meteohub,2013-01-03 10:50:00,
2013-01-03 05:55:00,49.6,48.0,30.10,NE,36,0.0,4.0,94,0.00,,,0.00,0.0,meteohub,2013-01-03 10:55:00,
2013-01-03 06:00:00,49.6,48.0,30.11,ESE,108,0.0,2.0,94,0.00,,,0.00,0.0,meteohub,2013-01-03 11:00:00,
2013-01-03 06:05:00,49.5,47.8,30.10,ENE,74,0.0,2.0,94,0.00,,,0.00,0.0,meteohub,2013-01-03 11:05:00,
2013-01-03 06:10:00,49.5,47.8,30.10,ENE,74,0.0,2.0,94,0.00,,,0.00,0.0,meteohub,2013-01-03 11:10:00,
2013-01-03 06:15:00,49.5,47.8,30.10,ENE,74,0.0,2.0,94,0.00,,,0.00,0.0,meteohub,2013-01-03 11:15:00,
2013-01-03 06:20:00,49.3,47.7,30.10,NE,49,0.0,1.0,94,0.00,,,0.00,0.0,meteohub,2013-01-03 11:20:00,
2013-01-03 06:25:00,49.3,47.7,30.11,NE,47,1.0,1.0,94,0.00,,,0.00,0.0,meteohub,2013-01-03 11:25:00,
2013-01-03 06:30:00,49.3,47.7,30.12,NNE,32,1.0,3.0,94,0.00,,,0.00,0.0,meteohub,2013-01-03 11:30:00,
2013-01-03 06:35:00,49.5,47.8,30.12,NNE,32,0.0,3.0,94,0.00,,,0.00,0.0,meteohub,2013-01-03 11:35:00,
2013-01-03 06:41:00,49.5,47.8,30.12,NNE,32,0.0,3.0,94,0.00,,,0.00,0.0,meteohub,2013-01-03 11:41:00,
2013-01-03 06:46:00,49.5,47.8,30.12,NNE,31,0.0,2.0,94,0.00,,,0.00,0.0,meteohub,2013-01-03 11:46:00,
2013-01-03 06:51:00,49.3,47.7,30.12,NE,37,0.0,3.0,94,0.00,,,0.00,0.0,meteohub,2013-01-03 11:51:00,
2013-01-03 06:56:00,49.3,47.7,30.13,NE,46,0.0,3.0,94,0.01,,,0.01,0.0,meteohub,2013-01-03 11:56:00,
2013-01-03 07:01:00,49.3,47.7,30.13,ENE,63,0.0,4.0,94,0.01,,,0.01,0.0,meteohub,2013-01-03 12:01:00,
2013-01-03 07:06:00,49.1,47.5,30.13,ENE,61,0.0,4.0,94,0.01,,,0.01,0.0,meteohub,2013-01-03 12:06:00,
2013-01-03 07:11:00,49.1,47.5,30.13,ENE,61,0.0,4.0,94,0.01,,,0.01,0.0,meteohub,2013-01-03 12:11:00,
2013-01-03 07:16:00,48.9,47.3,30.13,ENE,61,0.0,2.0,94,0.01,,,0.01,0.0,meteohub,2013-01-03 12:16:00,
2013-01-03 07:21:00,48.9,47.5,30.13,ENE,61,1.0,1.0,95,0.01,,,0.01,0.0,meteohub,2013-01-03 12:21:00,
2013-01-03 07:26:00,48.7,47.3,30.13,East,86,1.0,2.0,95,0.01,,,0.01,0.0,meteohub,2013-01-03 12:26:00,
2013-01-03 07:31:00,48.7,47.3,30.13,East,80,1.0,2.0,95,0.01,,,0.01,0.0,meteohub,2013-01-03 12:31:00,
2013-01-03 07:36:00,48.7,47.3,30.13,East,81,0.0,2.0,95,0.01,,,0.01,0.0,meteohub,2013-01-03 12:36:00,
2013-01-03 07:41:00,48.7,47.3,30.14,East,81,0.0,2.0,95,0.01,,,0.01,0.0,meteohub,2013-01-03 12:41:00,
2013-01-03 07:46:00,48.7,47.3,30.14,East,81,1.0,2.0,95,0.02,,,0.02,0.0,meteohub,2013-01-03 12:46:00,
2013-01-03 07:51:00,48.7,47.3,30.14,NNE,15,0.0,1.0,95,0.02,,,0.02,5.0,meteohub,2013-01-03 12:51:00,
2013-01-03 07:56:00,48.7,47.3,30.14,NNE,15,1.0,1.0,95,0.01,,,0.02,5.0,meteohub,2013-01-03 12:56:00,
2013-01-03 08:01:00,48.6,47.1,30.14,NNE,14,0.0,1.0,95,0.01,,,0.02,5.0,meteohub,2013-01-03 13:01:00,
2013-01-03 08:06:00,48.6,47.1,30.14,NNE,14,0.0,1.0,95,0.01,,,0.02,7.0,meteohub,2013-01-03 13:06:00,
2013-01-03 08:11:00,48.6,47.5,30.14,NNE,14,0.0,1.0,96,0.02,,,0.03,11.0,meteohub,2013-01-03 13:11:00,
2013-01-03 08:16:00,48.6,47.5,30.14,NNE,14,0.0,1.0,96,0.02,,,0.03,14.0,meteohub,2013-01-03 13:16:00,
2013-01-03 08:21:00,48.6,47.5,30.14,NNE,15,0.0,2.0,96,0.02,,,0.03,14.0,meteohub,2013-01-03 13:21:00,
2013-01-03 08:26:00,48.6,47.5,30.15,NNE,14,0.0,2.0,96,0.02,,,0.03,16.0,meteohub,2013-01-03 13:26:00,
2013-01-03 08:31:00,48.6,47.5,30.15,NNE,14,0.0,2.0,96,0.03,,,0.04,19.0,meteohub,2013-01-03 13:31:00,
2013-01-03 08:36:00,48.6,47.5,30.15,NNE,14,0.0,1.0,96,0.03,,,0.04,19.0,meteohub,2013-01-03 13:36:00,
2013-01-03 08:41:00,48.6,47.5,30.15,NNE,15,0.0,1.0,96,0.02,,,0.04,25.0,meteohub,2013-01-03 13:41:00,
2013-01-03 08:46:00,48.6,47.5,30.14,NNE,15,0.0,1.0,96,0.02,,,0.04,39.0,meteohub,2013-01-03 13:46:00,
2013-01-03 08:51:00,48.6,47.5,30.14,NNE,15,0.0,1.0,96,0.02,,,0.04,47.0,meteohub,2013-01-03 13:51:00,
2013-01-03 08:56:00,48.6,47.5,30.14,North,9,0.0,1.0,96,0.02,,,0.04,39.0,meteohub,2013-01-03 13:56:00,
2013-01-03 09:01:00,48.4,47.3,30.14,East,92,0.0,2.0,96,0.03,,,0.05,33.0,meteohub,2013-01-03 14:01:00,
2013-01-03 09:06:00,48.4,47.3,30.14,ENE,68,0.0,3.0,96,0.03,,,0.05,37.0,meteohub,2013-01-03 14:06:00,
2013-01-03 09:11:00,48.6,47.5,30.15,ENE,63,0.0,3.0,96,0.02,,,0.05,40.0,meteohub,2013-01-03 14:11:00,
2013-01-03 09:16:00,48.6,47.5,30.14,NE,39,0.0,2.0,96,0.02,,,0.05,46.0,meteohub,2013-01-03 14:16:00,
2013-01-03 09:21:00,48.7,47.7,30.14,NE,35,1.0,3.0,96,0.02,,,0.05,51.0,meteohub,2013-01-03 14:21:00,
2013-01-03 09:27:00,48.6,47.5,30.13,NNE,18,2.0,3.0,96,0.02,,,0.05,46.0,meteohub,2013-01-03 14:27:00,
2013-01-03 09:32:00,48.6,47.5,30.12,NE,55,1.0,3.0,96,0.02,,,0.06,53.0,meteohub,2013-01-03 14:32:00,
2013-01-03 09:37:00,48.6,47.5,30.13,NNE,13,0.0,3.0,96,0.02,,,0.06,51.0,meteohub,2013-01-03 14:37:00,
2013-01-03 09:42:00,48.6,47.5,30.13,SE,127,0.0,4.0,96,0.02,,,0.06,44.0,meteohub,2013-01-03 14:42:00,
2013-01-03 09:47:00,48.7,47.7,30.13,NNW,337,1.0,4.0,96,0.02,,,0.06,40.0,meteohub,2013-01-03 14:47:00,
2013-01-03 09:52:00,48.6,47.5,30.14,East,80,0.0,4.0,96,0.02,,,0.06,47.0,meteohub,2013-01-03 14:52:00,
2013-01-03 09:57:00,48.6,47.5,30.14,East,80,0.0,3.0,96,0.01,,,0.06,49.0,meteohub,2013-01-03 14:57:00,
2013-01-03 10:02:00,48.7,47.7,30.15,East,86,0.0,3.0,96,0.01,,,0.06,49.0,meteohub,2013-01-03 15:02:00,
2013-01-03 10:07:00,48.7,47.7,30.15,East,86,0.0,3.0,96,0.01,,,0.06,65.0,meteohub,2013-01-03 15:07:00,
2013-01-03 10:12:00,48.7,47.7,30.15,NE,44,1.0,2.0,96,0.02,,,0.07,72.0,meteohub,2013-01-03 15:12:00,
2013-01-03 10:17:00,48.9,47.8,30.14,East,90,1.0,3.0,96,0.02,,,0.07,67.0,meteohub,2013-01-03 15:17:00,
2013-01-03 10:22:00,48.9,47.8,30.14,East,90,0.0,3.0,96,0.02,,,0.07,62.0,meteohub,2013-01-03 15:22:00,
2013-01-03 10:27:00,48.9,47.8,30.15,East,84,0.0,3.0,96,0.01,,,0.07,54.0,meteohub,2013-01-03 15:27:00,
2013-01-03 10:32:00,48.9,47.8,30.15,East,84,0.0,3.0,96,0.01,,,0.07,51.0,meteohub,2013-01-03 15:32:00,
2013-01-03 10:37:00,49.3,48.2,30.16,East,84,1.0,3.0,96,0.01,,,0.07,69.0,meteohub,2013-01-03 15:37:00,
2013-01-03 10:42:00,49.3,48.2,30.16,East,84,0.0,2.0,96,0.02,,,0.08,81.0,meteohub,2013-01-03 15:42:00,
2013-01-03 10:47:00,49.5,48.4,30.16,East,81,0.0,2.0,96,0.02,,,0.08,102.0,meteohub,2013-01-03 15:47:00,
2013-01-03 10:52:00,49.5,48.4,30.16,East,80,0.0,2.0,96,0.02,,,0.08,120.0,meteohub,2013-01-03 15:52:00,
2013-01-03 10:57:00,49.5,48.4,30.16,East,80,0.0,3.0,96,0.02,,,0.08,142.0,meteohub,2013-01-03 15:57:00,
2013-01-03 11:02:00,49.6,48.6,30.16,East,80,0.0,3.0,96,0.02,,,0.08,137.0,meteohub,2013-01-03 16:02:00,
2013-01-03 11:07:00,49.6,48.6,30.17,East,80,0.0,2.0,96,0.02,,,0.09,97.0,meteohub,2013-01-03 16:07:00,
2013-01-03 11:12:00,49.6,48.6,30.17,East,80,0.0,2.0,96,0.02,,,0.09,88.0,meteohub,2013-01-03 16:12:00,
2013-01-03 11:17:00,49.6,48.6,30.17,East,80,0.0,2.0,96,0.02,,,0.09,84.0,meteohub,2013-01-03 16:17:00,
2013-01-03 11:22:00,49.6,48.6,30.17,East,80,0.0,2.0,96,0.03,,,0.10,86.0,meteohub,2013-01-03 16:22:00,
2013-01-03 11:27:00,49.6,48.2,30.17,East,80,0.0,1.0,95,0.03,,,0.10,79.0,meteohub,2013-01-03 16:27:00,
2013-01-03 11:32:00,50.0,48.9,30.17,East,80,0.0,1.0,96,0.03,,,0.10,95.0,meteohub,2013-01-03 16:32:00,
2013-01-03 11:37:00,50.2,49.1,30.17,East,80,0.0,1.0,96,0.03,,,0.10,84.0,meteohub,2013-01-03 16:37:00,
2013-01-03 11:42:00,50.0,48.6,30.16,East,80,0.0,2.0,95,0.02,,,0.10,70.0,meteohub,2013-01-03 16:42:00,
2013-01-03 11:47:00,50.2,48.7,30.16,East,80,0.0,2.0,95,0.02,,,0.10,65.0,meteohub,2013-01-03 16:47:00,
2013-01-03 11:52:00,50.2,48.7,30.16,East,80,0.0,2.0,95,0.03,,,0.11,65.0,meteohub,2013-01-03 16:52:00,
2013-01-03 11:57:00,50.2,48.7,30.15,East,80,0.0,1.0,95,0.03,,,0.11,65.0,meteohub,2013-01-03 16:57:00,
2013-01-03 12:02:00,50.2,48.7,30.15,East,80,0.0,1.0,95,0.03,,,0.11,70.0,meteohub,2013-01-03 17:02:00,
2013-01-03 12:07:00,50.4,49.3,30.14,East,101,0.0,1.0,96,0.03,,,0.12,72.0,meteohub,2013-01-03 17:07:00,
2013-01-03 12:12:00,50.4,49.3,30.14,East,101,0.0,2.0,96,0.03,,,0.12,56.0,meteohub,2013-01-03 17:12:00,
2013-01-03 12:17:00,50.4,49.3,30.14,East,101,0.0,2.0,96,0.03,,,0.12,63.0,meteohub,2013-01-03 17:17:00,
2013-01-03 12:22:00,50.4,49.3,30.14,East,100,0.0,2.0,96,0.02,,,0.12,56.0,meteohub,2013-01-03 17:22:00,
2013-01-03 12:27:00,50.4,49.3,30.14,East,100,0.0,1.0,96,0.02,,,0.12,49.0,meteohub,2013-01-03 17:27:00,
2013-01-03 12:32:00,50.4,49.3,30.14,East,100,0.0,1.0,96,0.02,,,0.12,46.0,meteohub,2013-01-03 17:32:00,
2013-01-03 12:37:00,50.2,49.1,30.14,East,100,0.0,1.0,96,0.03,,,0.13,53.0,meteohub,2013-01-03 17:37:00,
2013-01-03 12:42:00,50.4,49.3,30.13,East,100,0.0,1.0,96,0.03,,,0.13,49.0,meteohub,2013-01-03 17:42:00,
2013-01-03 12:47:00,50.4,49.3,30.13,East,100,0.0,1.0,96,0.03,,,0.13,39.0,meteohub,2013-01-03 17:47:00,
2013-01-03 12:52:00,50.4,49.3,30.13,East,100,0.0,1.0,96,0.02,,,0.13,32.0,meteohub,2013-01-03 17:52:00,
2013-01-03 12:57:00,50.2,48.7,30.13,East,100,0.0,1.0,95,0.02,,,0.13,33.0,meteohub,2013-01-03 17:57:00,
2013-01-03 13:02:00,50.2,48.7,30.13,East,100,0.0,0.0,95,0.02,,,0.13,37.0,meteohub,2013-01-03 18:02:00,
2013-01-03 13:07:00,50.2,49.1,30.12,East,100,0.0,1.0,96,0.01,,,0.13,54.0,meteohub,2013-01-03 18:07:00,
2013-01-03 13:12:00,50.4,49.3,30.12,East,100,0.0,1.0,96,0.01,,,0.13,53.0,meteohub,2013-01-03 18:12:00,
2013-01-03 13:17:00,50.2,49.1,30.12,East,100,0.0,1.0,96,0.01,,,0.13,58.0,meteohub,2013-01-03 18:17:00,
2013-01-03 13:22:00,50.2,49.1,30.12,East,100,0.0,1.0,96,0.01,,,0.13,70.0,meteohub,2013-01-03 18:22:00,
2013-01-03 13:28:00,50.2,49.1,30.12,East,100,0.0,1.0,96,0.01,,,0.13,72.0,meteohub,2013-01-03 18:28:00,
2013-01-03 13:33:00,50.2,49.1,30.12,East,100,0.0,2.0,96,0.00,,,0.13,72.0,meteohub,2013-01-03 18:33:00,
2013-01-03 13:38:00,50.2,49.1,30.12,East,100,1.0,2.0,96,0.00,,,0.13,65.0,meteohub,2013-01-03 18:38:00,
2013-01-03 13:43:00,50.4,49.3,30.12,East,100,0.0,2.0,96,0.00,,,0.13,72.0,meteohub,2013-01-03 18:43:00,
2013-01-03 13:48:00,50.5,49.5,30.11,East,100,0.0,2.0,96,0.00,,,0.13,72.0,meteohub,2013-01-03 18:48:00,
2013-01-03 13:53:00,50.7,49.6,30.11,East,100,0.0,2.0,96,0.00,,,0.13,77.0,meteohub,2013-01-03 18:53:00,
2013-01-03 13:58:00,50.7,49.6,30.11,East,100,1.0,1.0,96,0.00,,,0.13,107.0,meteohub,2013-01-03 18:58:00,
2013-01-03 14:03:00,50.7,49.6,30.11,East,100,0.0,1.0,96,0.00,,,0.13,93.0,meteohub,2013-01-03 19:03:00,
2013-01-03 14:08:00,50.9,49.8,30.11,East,100,0.0,1.0,96,0.00,,,0.13,77.0,meteohub,2013-01-03 19:08:00,
2013-01-03 14:13:00,51.1,50.0,30.11,East,100,0.0,1.0,96,0.01,,,0.14,90.0,meteohub,2013-01-03 19:13:00,
2013-01-03 14:18:00,51.1,50.0,30.11,East,100,0.0,1.0,96,0.01,,,0.14,76.0,meteohub,2013-01-03 19:18:00,
2013-01-03 14:37:00,51.3,50.2,30.11,East,85,0.0,2.0,96,0.01,,,0.14,39.0,meteohub,2013-01-03 19:37:00,
2013-01-03 14:54:00,51.4,50.4,30.12,East,85,0.0,2.0,96,0.01,,,0.14,33.0,meteohub,2013-01-03 19:54:00,
2013-01-03 14:59:00,51.4,50.4,30.12,East,85,0.0,2.0,96,0.01,,,0.14,63.0,meteohub,2013-01-03 19:59:00,
2013-01-03 15:04:00,51.4,50.4,30.12,East,85,0.0,1.0,96,0.02,,,0.15,58.0,meteohub,2013-01-03 20:04:00,
2013-01-03 15:09:00,51.4,50.4,30.12,East,85,0.0,2.0,96,0.01,,,0.15,28.0,meteohub,2013-01-03 20:09:00,
2013-01-03 15:14:00,51.3,50.2,30.12,East,85,0.0,2.0,96,0.01,,,0.15,30.0,meteohub,2013-01-03 20:14:00,
2013-01-03 15:19:00,51.3,50.2,30.12,East,84,0.0,2.0,96,0.01,,,0.15,18.0,meteohub,2013-01-03 20:19:00,
2013-01-03 15:24:00,51.4,50.4,30.12,East,84,0.0,2.0,96,0.01,,,0.15,23.0,meteohub,2013-01-03 20:24:00,
2013-01-03 15:29:00,51.4,50.4,30.12,East,84,0.0,2.0,96,0.01,,,0.15,12.0,meteohub,2013-01-03 20:29:00,
2013-01-03 15:34:00,51.4,50.4,30.13,WNW,302,0.0,2.0,96,0.01,,,0.15,16.0,meteohub,2013-01-03 20:34:00,
2013-01-03 15:39:00,51.4,50.4,30.12,WNW,302,0.0,2.0,96,0.01,,,0.15,21.0,meteohub,2013-01-03 20:39:00,
2013-01-03 15:44:00,51.4,50.4,30.12,WNW,302,0.0,2.0,96,0.01,,,0.15,30.0,meteohub,2013-01-03 20:44:00,
2013-01-03 15:49:00,51.4,50.4,30.11,SE,124,0.0,2.0,96,0.01,,,0.15,32.0,meteohub,2013-01-03 20:49:00,
2013-01-03 15:54:00,51.4,50.4,30.11,ESE,123,1.0,4.0,96,0.01,,,0.15,28.0,meteohub,2013-01-03 20:54:00,
2013-01-03 15:59:00,51.4,50.4,30.11,ESE,105,0.0,4.0,96,0.01,,,0.15,25.0,meteohub,2013-01-03 20:59:00,
2013-01-03 16:04:00,51.4,50.4,30.12,ESE,105,0.0,4.0,96,0.00,,,0.15,23.0,meteohub,2013-01-03 21:04:00,
2013-01-03 16:09:00,51.4,50.4,30.12,ESE,105,2.0,3.0,96,0.00,,,0.15,23.0,meteohub,2013-01-03 21:09:00,
2013-01-03 16:14:00,51.6,50.7,30.11,ESE,105,0.0,2.0,97,0.00,,,0.15,26.0,meteohub,2013-01-03 21:14:00,
2013-01-03 16:19:00,51.6,50.7,30.11,ESE,105,0.0,2.0,97,0.00,,,0.15,32.0,meteohub,2013-01-03 21:19:00,
2013-01-03 16:24:00,51.6,50.5,30.11,ESE,105,0.0,2.0,96,0.00,,,0.15,25.0,meteohub,2013-01-03 21:24:00,
2013-01-03 16:29:00,51.6,50.5,30.12,ESE,105,0.0,2.0,96,0.00,,,0.15,23.0,meteohub,2013-01-03 21:29:00,
2013-01-03 16:34:00,51.6,50.5,30.11,ESE,105,0.0,1.0,96,0.00,,,0.15,21.0,meteohub,2013-01-03 21:34:00,
2013-01-03 16:39:00,51.6,50.5,30.12,ESE,105,0.0,1.0,96,0.00,,,0.15,21.0,meteohub,2013-01-03 21:39:00,
2013-01-03 16:41:00,51.6,50.5,30.12,ESE,105,0.0,1.0,96,0.00,,,0.15,19.0,meteohub,2013-01-03 21:41:00,
2013-01-03 16:47:00,51.6,50.5,30.13,ESE,105,0.0,1.0,96,0.00,,,0.15,16.0,meteohub,2013-01-03 21:47:00,
2013-01-03 16:56:00,51.6,50.5,30.14,ESE,107,0.0,2.0,96,0.00,,,0.15,5.0,meteohub,2013-01-03 21:56:00,
2013-01-03 17:01:00,51.6,50.5,30.13,ENE,60,2.0,2.0,96,0.00,,,0.15,7.0,meteohub,2013-01-03 22:01:00,
2013-01-03 17:06:00,51.6,50.5,30.12,NE,47,1.0,2.0,96,0.00,,,0.15,0.0,meteohub,2013-01-03 22:06:00,
2013-01-03 17:11:00,51.6,50.5,30.13,NE,47,0.0,2.0,96,0.00,,,0.15,0.0,meteohub,2013-01-03 22:11:00,
2013-01-03 17:16:00,51.6,50.5,30.13,East,81,0.0,2.0,96,0.00,,,0.15,0.0,meteohub,2013-01-03 22:16:00,
2013-01-03 17:21:00,51.4,50.4,30.13,East,81,0.0,2.0,96,0.00,,,0.15,0.0,meteohub,2013-01-03 22:21:00,
2013-01-03 17:26:00,51.4,50.5,30.12,NE,49,0.0,2.0,97,0.00,,,0.15,0.0,meteohub,2013-01-03 22:26:00,
2013-01-03 17:31:00,51.4,50.5,30.14,NE,49,1.0,2.0,97,0.00,,,0.15,0.0,meteohub,2013-01-03 22:31:00,
2013-01-03 17:36:00,51.4,50.5,30.15,North,355,0.0,2.0,97,0.00,,,0.15,0.0,meteohub,2013-01-03 22:36:00,
2013-01-03 17:41:00,51.4,50.5,30.15,NNW,346,1.0,2.0,97,0.00,,,0.15,0.0,meteohub,2013-01-03 22:41:00,
2013-01-03 17:46:00,51.4,50.5,30.16,NW,325,2.0,2.0,97,0.00,,,0.15,0.0,meteohub,2013-01-03 22:46:00,
2013-01-03 17:51:00,51.4,50.5,30.14,NE,46,1.0,2.0,97,0.00,,,0.15,0.0,meteohub,2013-01-03 22:51:00,
2013-01-03 17:56:00,51.3,50.4,30.15,ENE,57,0.0,3.0,97,0.00,,,0.15,0.0,meteohub,2013-01-03 22:56:00,
2013-01-03 18:01:00,51.3,50.4,30.15,NE,44,1.0,3.0,97,0.00,,,0.15,0.0,meteohub,2013-01-03 23:01:00,
2013-01-03 18:06:00,51.3,50.4,30.15,North,355,1.0,2.0,97,0.00,,,0.15,0.0,meteohub,2013-01-03 23:06:00,
2013-01-03 18:11:00,51.3,50.2,30.16,North,355,1.0,3.0,96,0.00,,,0.15,0.0,meteohub,2013-01-03 23:11:00,
2013-01-03 18:16:00,51.1,50.0,30.17,NNW,346,1.0,3.0,96,0.00,,,0.15,0.0,meteohub,2013-01-03 23:16:00,
2013-01-03 18:21:00,51.1,50.0,30.17,NNW,336,0.0,3.0,96,0.00,,,0.15,0.0,meteohub,2013-01-03 23:21:00,
2013-01-03 18:26:00,51.1,50.0,30.17,NNW,336,0.0,2.0,96,0.00,,,0.15,0.0,meteohub,2013-01-03 23:26:00,
2013-01-03 18:31:00,50.9,49.8,30.16,NNE,26,0.0,2.0,96,0.00,,,0.15,0.0,meteohub,2013-01-03 23:31:00,
2013-01-03 18:36:00,50.9,49.8,30.16,NNE,26,0.0,2.0,96,0.00,,,0.15,0.0,meteohub,2013-01-03 23:36:00,
2013-01-03 18:41:00,50.9,49.8,30.17,NNE,26,0.0,1.0,96,0.00,,,0.15,0.0,meteohub,2013-01-03 23:41:00,
2013-01-03 18:46:00,50.7,49.6,30.18,WNW,282,0.0,1.0,96,0.00,,,0.15,0.0,meteohub,2013-01-03 23:46:00,
2013-01-03 18:51:00,50.7,49.6,30.18,WNW,284,0.0,3.0,96,0.00,,,0.15,0.0,meteohub,2013-01-03 23:51:00,
2013-01-03 18:57:00,50.7,49.6,30.18,WNW,284,1.0,3.0,96,0.00,,,0.15,0.0,meteohub,2013-01-03 23:57:00,
2013-01-03 19:02:00,50.5,49.5,30.19,NNW,334,0.0,3.0,96,0.00,,,0.15,0.0,meteohub,2013-01-04 00:02:00,
2013-01-03 19:07:00,50.5,49.5,30.18,NNW,334,0.0,3.0,96,0.00,,,0.15,0.0,meteohub,2013-01-04 00:07:00,
2013-01-03 19:12:00,50.5,49.5,30.18,NE,41,1.0,3.0,96,0.00,,,0.15,0.0,meteohub,2013-01-04 00:12:00,
2013-01-03 19:17:00,50.4,49.3,30.17,NW,319,0.0,3.0,96,0.00,,,0.15,0.0,meteohub,2013-01-04 00:17:00,
2013-01-03 19:22:00,50.4,49.3,30.18,NW,319,0.0,3.0,96,0.00,,,0.15,0.0,meteohub,2013-01-04 00:22:00,
2013-01-03 19:27:00,50.4,49.3,30.19,NW,319,0.0,3.0,96,0.00,,,0.15,0.0,meteohub,2013-01-04 00:27:00,
2013-01-03 19:32:00,50.4,49.3,30.19,NW,319,0.0,3.0,96,0.00,,,0.15,0.0,meteohub,2013-01-04 00:32:00,
2013-01-03 19:37:00,50.2,49.1,30.19,NW,311,0.0,1.0,96,0.00,,,0.15,0.0,meteohub,2013-01-04 00:37:00,
2013-01-03 19:42:00,50.2,49.1,30.19,NW,311,0.0,2.0,96,0.00,,,0.15,0.0,meteohub,2013-01-04 00:42:00,
2013-01-03 19:47:00,50.2,49.1,30.20,NW,311,0.0,2.0,96,0.00,,,0.15,0.0,meteohub,2013-01-04 00:47:00,
2013-01-03 19:52:00,50.2,49.1,30.20,NNW,336,0.0,2.0,96,0.00,,,0.15,0.0,meteohub,2013-01-04 00:52:00,
2013-01-03 19:57:00,50.2,49.1,30.20,NNW,336,0.0,2.0,96,0.00,,,0.15,0.0,meteohub,2013-01-04 00:57:00,
2013-01-03 20:02:00,50.2,49.1,30.20,NNW,336,0.0,2.0,96,0.00,,,0.15,0.0,meteohub,2013-01-04 01:02:00,
2013-01-03 20:07:00,50.2,49.1,30.20,NNW,330,0.0,2.0,96,0.00,,,0.15,0.0,meteohub,2013-01-04 01:07:00,
2013-01-03 20:12:00,50.0,48.9,30.20,NNE,15,1.0,4.0,96,0.00,,,0.15,0.0,meteohub,2013-01-04 01:12:00,
2013-01-03 20:17:00,49.8,48.7,30.21,WNW,302,0.0,4.0,96,0.00,,,0.15,0.0,meteohub,2013-01-04 01:17:00,
2013-01-03 20:22:00,49.8,48.7,30.21,NNW,340,2.0,4.0,96,0.00,,,0.15,0.0,meteohub,2013-01-04 01:22:00,
2013-01-03 20:27:00,49.6,48.6,30.21,ENE,63,0.0,3.0,96,0.00,,,0.15,0.0,meteohub,2013-01-04 01:27:00,
2013-01-03 20:32:00,49.6,48.6,30.21,NW,310,1.0,4.0,96,0.00,,,0.15,0.0,meteohub,2013-01-04 01:32:00,
2013-01-03 20:37:00,49.6,48.6,30.21,NW,318,0.0,4.0,96,0.00,,,0.15,0.0,meteohub,2013-01-04 01:37:00,
2013-01-03 20:42:00,49.5,48.4,30.21,NNE,15,1.0,4.0,96,0.00,,,0.15,0.0,meteohub,2013-01-04 01:42:00,
2013-01-03 20:47:00,49.3,48.2,30.21,ENE,65,1.0,4.0,96,0.00,,,0.15,0.0,meteohub,2013-01-04 01:47:00,
2013-01-03 20:52:00,49.3,48.2,30.21,NNW,340,1.0,4.0,96,0.00,,,0.15,0.0,meteohub,2013-01-04 01:52:00,
2013-01-03 20:57:00,49.1,48.0,30.21,ENE,73,0.0,4.0,96,0.00,,,0.15,0.0,meteohub,2013-01-04 01:57:00,
2013-01-03 21:02:00,48.9,47.5,30.22,North,355,2.0,4.0,95,0.00,,,0.15,0.0,meteohub,2013-01-04 02:02:00,
2013-01-03 21:07:00,48.7,47.3,30.21,North,355,1.0,4.0,95,0.00,,,0.15,0.0,meteohub,2013-01-04 02:07:00,
2013-01-03 21:12:00,48.6,47.1,30.22,West,277,0.0,4.0,95,0.00,,,0.15,0.0,meteohub,2013-01-04 02:12:00,
2013-01-03 21:17:00,48.4,47.3,30.22,NE,39,0.0,4.0,96,0.00,,,0.15,0.0,meteohub,2013-01-04 02:17:00,
2013-01-03 21:22:00,48.4,46.9,30.22,NW,316,1.0,4.0,95,0.00,,,0.15,0.0,meteohub,2013-01-04 02:22:00,
2013-01-03 21:27:00,48.0,46.6,30.23,NNE,31,1.0,4.0,95,0.00,,,0.15,0.0,meteohub,2013-01-04 02:27:00,
2013-01-03 21:32:00,47.8,46.4,30.23,NNW,333,3.0,5.0,95,0.00,,,0.15,0.0,meteohub,2013-01-04 02:32:00,
2013-01-03 21:37:00,47.8,46.4,30.23,WNW,294,2.0,5.0,95,0.00,,,0.15,0.0,meteohub,2013-01-04 02:37:00,
2013-01-03 21:42:00,47.7,46.2,30.23,NE,53,1.0,5.0,95,0.00,,,0.15,0.0,meteohub,2013-01-04 02:42:00,
2013-01-03 21:47:00,47.5,46.0,30.23,NE,35,1.0,5.0,95,0.00,,,0.15,0.0,meteohub,2013-01-04 02:47:00,
2013-01-03 21:52:00,47.5,46.0,30.24,South,183,2.0,5.0,95,0.00,,,0.15,0.0,meteohub,2013-01-04 02:52:00,
2013-01-03 21:57:00,47.3,45.9,30.24,ENE,72,1.0,6.0,95,0.00,,,0.15,0.0,meteohub,2013-01-04 02:57:00,
2013-01-03 22:02:00,47.3,45.9,30.24,NNW,346,2.0,6.0,95,0.00,,,0.15,0.0,meteohub,2013-01-04 03:02:00,
2013-01-03 22:07:00,47.1,45.7,30.24,NW,319,0.0,6.0,95,0.00,,,0.15,0.0,meteohub,2013-01-04 03:07:00,
2013-01-03 22:12:00,47.1,45.7,30.24,North,5,0.0,4.0,95,0.00,,,0.15,0.0,meteohub,2013-01-04 03:12:00,
2013-01-03 22:17:00,47.1,45.7,30.24,NE,42,0.0,4.0,95,0.00,,,0.15,0.0,meteohub,2013-01-04 03:17:00,
2013-01-03 22:22:00,46.9,45.5,30.24,NW,326,1.0,9.0,95,0.00,,,0.15,0.0,meteohub,2013-01-04 03:22:00,
2013-01-03 22:27:00,46.8,45.3,30.24,North,5,1.0,9.0,95,0.00,,,0.15,0.0,meteohub,2013-01-04 03:27:00,
2013-01-03 22:32:00,46.8,45.3,30.25,ENE,57,0.0,9.0,95,0.00,,,0.15,0.0,meteohub,2013-01-04 03:32:00,
2013-01-03 22:37:00,46.6,45.1,30.25,North,355,1.0,5.0,95,0.00,,,0.15,0.0,meteohub,2013-01-04 03:37:00,
2013-01-03 22:42:00,46.6,45.1,30.24,North,355,0.0,4.0,95,0.00,,,0.15,0.0,meteohub,2013-01-04 03:42:00,
2013-01-03 22:47:00,46.4,45.0,30.24,NNW,331,0.0,4.0,95,0.00,,,0.15,0.0,meteohub,2013-01-04 03:47:00,
2013-01-03 22:52:00,46.2,44.8,30.24,NNW,346,1.0,4.0,95,0.00,,,0.15,0.0,meteohub,2013-01-04 03:52:00,
2013-01-03 22:57:00,46.2,44.8,30.24,ENE,60,0.0,5.0,95,0.00,,,0.15,0.0,meteohub,2013-01-04 03:57:00,
2013-01-03 23:02:00,46.0,44.4,30.24,NW,317,1.0,5.0,94,0.00,,,0.15,0.0,meteohub,2013-01-04 04:02:00,
2013-01-03 23:07:00,46.0,44.4,30.25,NNW,333,0.0,5.0,94,0.00,,,0.15,0.0,meteohub,2013-01-04 04:07:00,
2013-01-03 23:12:00,45.9,44.2,30.25,North,5,0.0,3.0,94,0.00,,,0.15,0.0,meteohub,2013-01-04 04:12:00,
2013-01-03 23:17:00,45.9,44.2,30.24,NNW,335,0.0,3.0,94,0.00,,,0.15,0.0,meteohub,2013-01-04 04:17:00,
2013-01-03 23:22:00,45.7,44.1,30.25,NNW,331,1.0,3.0,94,0.00,,,0.15,0.0,meteohub,2013-01-04 04:22:00,
2013-01-03 23:27:00,45.7,44.1,30.25,North,355,2.0,3.0,94,0.00,,,0.15,0.0,meteohub,2013-01-04 04:27:00,
2013-01-03 23:32:00,45.5,43.9,30.25,NW,314,0.0,5.0,94,0.00,,,0.15,0.0,meteohub,2013-01-04 04:32:00,
2013-01-03 23:37:00,45.3,43.7,30.25,NNW,339,0.0,5.0,94,0.00,,,0.15,0.0,meteohub,2013-01-04 04:37:00,
2013-01-03 23:42:00,45.3,43.7,30.25,NNE,21,0.0,3.0,94,0.00,,,0.15,0.0,meteohub,2013-01-04 04:42:00,
2013-01-03 23:47:00,45.1,43.5,30.24,NNW,338,3.0,3.0,94,0.00,,,0.15,0.0,meteohub,2013-01-04 04:47:00,
2013-01-03 23:52:00,45.0,43.3,30.25,NNW,334,0.0,3.0,94,0.00,,,0.15,0.0,meteohub,2013-01-04 04:52:00,
2013-01-03 23:57:00,45.0,43.3,30.24,NNW,331,1.0,3.0,94,0.00,,,0.15,0.0,meteohub,2013-01-04 04:57:00,